sensor_id;sensor_type;location;lat;lon;timestamp;pressure;altitude;pressure_sealevel;temperature;humidity
1401;BME280;46518;48.842;8.926;2023-05-18T00:02:04;97763.69;;;7.33;76.68
1401;BME280;46518;48.842;8.926;2023-05-18T00:04:33;97756.34;;;7.10;77.34
1401;BME280;46518;48.842;8.926;2023-05-18T00:07:03;97744.03;;;7.17;77.64
1401;BME280;46518;48.842;8.926;2023-05-18T00:09:34;97740.78;;;7.22;77.24
1401;BME280;46518;48.842;8.926;2023-05-18T00:12:04;97737.88;;;6.91;77.47
1401;BME280;46518;48.842;8.926;2023-05-18T00:14:32;97751.78;;;7.37;77.97
1401;BME280;46518;48.842;8.926;2023-05-18T00:17:01;97723.53;;;7.46;77.21
1401;BME280;46518;48.842;8.926;2023-05-18T00:19:29;97736.63;;;7.46;77.01
1401;BME280;46518;48.842;8.926;2023-05-18T00:21:57;97734.25;;;7.38;77.31
1401;BME280;46518;48.842;8.926;2023-05-18T00:24:29;97718.00;;;7.29;76.97
1401;BME280;46518;48.842;8.926;2023-05-18T00:26:57;97713.59;;;7.23;77.74
1401;BME280;46518;48.842;8.926;2023-05-18T00:29:25;97735.84;;;7.39;78.69
1401;BME280;46518;48.842;8.926;2023-05-18T00:31:54;97706.16;;;7.20;78.33
1401;BME280;46518;48.842;8.926;2023-05-18T00:34:22;97720.81;;;7.27;78.20
1401;BME280;46518;48.842;8.926;2023-05-18T00:36:51;97732.94;;;7.22;78.50
1401;BME280;46518;48.842;8.926;2023-05-18T00:39:19;97717.25;;;7.15;78.99
1401;BME280;46518;48.842;8.926;2023-05-18T00:41:51;97717.19;;;7.28;78.79
1401;BME280;46518;48.842;8.926;2023-05-18T00:44:26;97735.81;;;7.52;78.50
1401;BME280;46518;48.842;8.926;2023-05-18T00:46:54;97735.56;;;7.60;78.14
1401;BME280;46518;48.842;8.926;2023-05-18T00:49:23;97740.53;;;7.68;77.84
1401;BME280;46518;48.842;8.926;2023-05-18T00:51:51;97722.63;;;7.65;77.92
1401;BME280;46518;48.842;8.926;2023-05-18T00:54:20;97714.75;;;7.65;77.61
1401;BME280;46518;48.842;8.926;2023-05-18T00:56:49;97721.56;;;7.73;77.87
1401;BME280;46518;48.842;8.926;2023-05-18T00:59:19;97729.13;;;7.88;77.47
1401;BME280;46518;48.842;8.926;2023-05-18T01:01:47;97722.22;;;7.93;77.39
1401;BME280;46518;48.842;8.926;2023-05-18T01:04:16;97702.66;;;7.96;77.12
1401;BME280;46518;48.842;8.926;2023-05-18T01:06:47;97700.47;;;7.93;76.51
1401;BME280;46518;48.842;8.926;2023-05-18T01:09:16;97703.69;;;7.95;76.75
1401;BME280;46518;48.842;8.926;2023-05-18T01:11:54;97717.53;;;8.02;76.76
1401;BME280;46518;48.842;8.926;2023-05-18T01:14:30;97726.34;;;8.08;76.98
1401;BME280;46518;48.842;8.926;2023-05-18T01:17:05;97708.75;;;7.90;76.72
1401;BME280;46518;48.842;8.926;2023-05-18T01:20:03;97725.72;;;8.12;76.79
1401;BME280;46518;48.842;8.926;2023-05-18T01:22:49;97724.38;;;8.03;77.02
1401;BME280;46518;48.842;8.926;2023-05-18T01:25:32;97710.75;;;7.94;76.60
1401;BME280;46518;48.842;8.926;2023-05-18T01:28:08;97715.50;;;8.04;76.46
1401;BME280;46518;48.842;8.926;2023-05-18T01:30:42;97731.56;;;8.14;76.64
1401;BME280;46518;48.842;8.926;2023-05-18T01:33:12;97732.41;;;8.08;76.83
1401;BME280;46518;48.842;8.926;2023-05-18T01:35:40;97737.41;;;8.16;76.45
1401;BME280;46518;48.842;8.926;2023-05-18T01:38:15;97735.13;;;8.20;76.54
1401;BME280;46518;48.842;8.926;2023-05-18T01:40:51;97733.00;;;8.10;76.20
1401;BME280;46518;48.842;8.926;2023-05-18T01:43:27;97739.25;;;8.09;76.33
1401;BME280;46518;48.842;8.926;2023-05-18T01:46:04;97729.56;;;8.10;76.72
1401;BME280;46518;48.842;8.926;2023-05-18T01:48:37;97729.19;;;8.06;76.45
1401;BME280;46518;48.842;8.926;2023-05-18T01:51:10;97724.38;;;8.03;76.79
1401;BME280;46518;48.842;8.926;2023-05-18T01:53:44;97728.53;;;8.11;76.40
1401;BME280;46518;48.842;8.926;2023-05-18T01:56:13;97721.16;;;8.01;76.40
1401;BME280;46518;48.842;8.926;2023-05-18T01:58:43;97706.44;;;7.75;76.95
1401;BME280;46518;48.842;8.926;2023-05-18T02:01:14;97705.22;;;7.77;77.12
1401;BME280;46518;48.842;8.926;2023-05-18T02:03:46;97718.13;;;7.79;77.21
1401;BME280;46518;48.842;8.926;2023-05-18T02:06:14;97696.44;;;7.65;77.08
1401;BME280;46518;48.842;8.926;2023-05-18T02:08:43;97715.91;;;7.76;77.02
1401;BME280;46518;48.842;8.926;2023-05-18T02:11:11;97715.09;;;7.75;77.70
1401;BME280;46518;48.842;8.926;2023-05-18T02:13:40;97714.13;;;7.70;77.60
1401;BME280;46518;48.842;8.926;2023-05-18T02:16:10;97714.50;;;7.73;77.44
1401;BME280;46518;48.842;8.926;2023-05-18T02:18:39;97697.19;;;7.72;77.59
1401;BME280;46518;48.842;8.926;2023-05-18T02:21:07;97702.78;;;7.76;76.99
1401;BME280;46518;48.842;8.926;2023-05-18T02:23:36;97686.41;;;7.55;78.28
1401;BME280;46518;48.842;8.926;2023-05-18T02:26:06;97708.09;;;7.69;77.75
1401;BME280;46518;48.842;8.926;2023-05-18T02:28:34;97709.69;;;7.70;77.47
1401;BME280;46518;48.842;8.926;2023-05-18T02:31:06;97703.69;;;7.63;78.02
1401;BME280;46518;48.842;8.926;2023-05-18T02:33:36;97720.59;;;7.67;77.86
1401;BME280;46518;48.842;8.926;2023-05-18T02:36:08;97701.94;;;7.57;77.68
1401;BME280;46518;48.842;8.926;2023-05-18T02:38:37;97720.81;;;7.66;78.04
1401;BME280;46518;48.842;8.926;2023-05-18T02:41:05;97688.44;;;7.53;78.16
1401;BME280;46518;48.842;8.926;2023-05-18T02:43:34;97701.97;;;7.44;78.49
1401;BME280;46518;48.842;8.926;2023-05-18T02:46:02;97701.34;;;7.55;77.90
1401;BME280;46518;48.842;8.926;2023-05-18T02:48:32;97706.59;;;7.48;76.92
1401;BME280;46518;48.842;8.926;2023-05-18T02:51:02;97702.59;;;7.46;77.15
1401;BME280;46518;48.842;8.926;2023-05-18T02:53:31;97691.84;;;7.22;77.36
1401;BME280;46518;48.842;8.926;2023-05-18T02:56:05;97690.47;;;7.13;77.91
1401;BME280;46518;48.842;8.926;2023-05-18T02:58:49;97700.56;;;7.09;78.27
1401;BME280;46518;48.842;8.926;2023-05-18T03:01:28;97710.41;;;7.14;78.94
1401;BME280;46518;48.842;8.926;2023-05-18T03:03:57;97703.59;;;7.06;78.48
1401;BME280;46518;48.842;8.926;2023-05-18T03:06:27;97706.66;;;6.97;78.52
1401;BME280;46518;48.842;8.926;2023-05-18T03:08:56;97689.56;;;6.87;78.60
1401;BME280;46518;48.842;8.926;2023-05-18T03:11:33;97691.59;;;6.85;78.64
1401;BME280;46518;48.842;8.926;2023-05-18T03:14:02;97709.09;;;6.91;79.13
1401;BME280;46518;48.842;8.926;2023-05-18T03:16:30;97688.19;;;6.78;79.36
1401;BME280;46518;48.842;8.926;2023-05-18T03:18:59;97700.91;;;6.75;79.22
1401;BME280;46518;48.842;8.926;2023-05-18T03:21:35;97711.91;;;6.90;79.55
1401;BME280;46518;48.842;8.926;2023-05-18T03:24:04;97689.63;;;6.74;79.31
1401;BME280;46518;48.842;8.926;2023-05-18T03:26:35;97683.22;;;6.63;79.10
1401;BME280;46518;48.842;8.926;2023-05-18T03:29:04;97700.13;;;6.61;79.27
1401;BME280;46518;48.842;8.926;2023-05-18T03:31:33;97694.91;;;6.54;79.57
1401;BME280;46518;48.842;8.926;2023-05-18T03:34:02;97704.16;;;6.57;80.03
1401;BME280;46518;48.842;8.926;2023-05-18T03:36:30;97693.09;;;6.55;79.53
1401;BME280;46518;48.842;8.926;2023-05-18T03:39:00;97714.22;;;6.53;80.64
1401;BME280;46518;48.842;8.926;2023-05-18T03:41:28;97701.56;;;6.43;80.76
1401;BME280;46518;48.842;8.926;2023-05-18T03:43:57;97702.34;;;6.44;80.60
1401;BME280;46518;48.842;8.926;2023-05-18T03:46:26;97714.25;;;6.46;80.11
1401;BME280;46518;48.842;8.926;2023-05-18T03:48:55;97717.06;;;6.45;79.82
1401;BME280;46518;48.842;8.926;2023-05-18T03:51:30;97715.44;;;6.44;80.10
1401;BME280;46518;48.842;8.926;2023-05-18T03:54:01;97710.19;;;6.44;80.39
1401;BME280;46518;48.842;8.926;2023-05-18T03:56:29;97687.13;;;6.34;80.64
1401;BME280;46518;48.842;8.926;2023-05-18T03:58:57;97709.78;;;6.54;81.09
1401;BME280;46518;48.842;8.926;2023-05-18T04:01:26;97721.03;;;6.61;81.28
1401;BME280;46518;48.842;8.926;2023-05-18T04:03:56;97712.63;;;6.45;81.42
1401;BME280;46518;48.842;8.926;2023-05-18T04:06:25;97712.63;;;6.45;81.36
1401;BME280;46518;48.842;8.926;2023-05-18T04:08:53;97719.44;;;6.60;81.24
1401;BME280;46518;48.842;8.926;2023-05-18T04:11:25;97713.59;;;6.51;82.35
1401;BME280;46518;48.842;8.926;2023-05-18T04:13:54;97734.50;;;6.71;82.14
1401;BME280;46518;48.842;8.926;2023-05-18T04:16:25;97737.94;;;6.65;81.15
1401;BME280;46518;48.842;8.926;2023-05-18T04:18:54;97735.53;;;6.57;81.43
1401;BME280;46518;48.842;8.926;2023-05-18T04:21:22;97736.91;;;6.66;81.21
1401;BME280;46518;48.842;8.926;2023-05-18T04:23:50;97730.28;;;6.63;81.59
1401;BME280;46518;48.842;8.926;2023-05-18T04:26:19;97733.50;;;6.59;82.03
1401;BME280;46518;48.842;8.926;2023-05-18T04:28:51;97722.44;;;6.63;81.95
1401;BME280;46518;48.842;8.926;2023-05-18T04:31:19;97738.72;;;6.72;82.38
1401;BME280;46518;48.842;8.926;2023-05-18T04:33:48;97737.94;;;6.65;82.71
1401;BME280;46518;48.842;8.926;2023-05-18T04:36:18;97752.41;;;6.74;83.01
1401;BME280;46518;48.842;8.926;2023-05-18T04:38:47;97737.91;;;6.78;83.46
1401;BME280;46518;48.842;8.926;2023-05-18T04:41:17;97737.47;;;6.95;82.98
1401;BME280;46518;48.842;8.926;2023-05-18T04:43:48;97743.44;;;7.08;82.34
1401;BME280;46518;48.842;8.926;2023-05-18T04:46:18;97751.72;;;7.05;82.48
1401;BME280;46518;48.842;8.926;2023-05-18T04:48:48;97739.25;;;7.01;82.58
1401;BME280;46518;48.842;8.926;2023-05-18T04:51:16;97758.09;;;7.23;82.14
1401;BME280;46518;48.842;8.926;2023-05-18T04:53:47;97753.03;;;7.28;82.29
1401;BME280;46518;48.842;8.926;2023-05-18T04:56:16;97750.34;;;7.41;82.22
1401;BME280;46518;48.842;8.926;2023-05-18T04:58:46;97757.56;;;7.52;82.33
1401;BME280;46518;48.842;8.926;2023-05-18T05:01:16;97742.88;;;7.51;82.48
1401;BME280;46518;48.842;8.926;2023-05-18T05:03:46;97758.34;;;7.60;82.35
1401;BME280;46518;48.842;8.926;2023-05-18T05:06:14;97761.09;;;7.71;82.58
1401;BME280;46518;48.842;8.926;2023-05-18T05:08:42;97768.34;;;7.69;82.83
1401;BME280;46518;48.842;8.926;2023-05-18T05:11:11;97754.03;;;7.72;82.49
1401;BME280;46518;48.842;8.926;2023-05-18T05:13:39;97769.88;;;7.84;82.53
1401;BME280;46518;48.842;8.926;2023-05-18T05:16:07;97766.84;;;7.87;82.51
1401;BME280;46518;48.842;8.926;2023-05-18T05:18:36;97750.13;;;7.81;81.99
1401;BME280;46518;48.842;8.926;2023-05-18T05:21:07;97758.75;;;7.88;81.54
1401;BME280;46518;48.842;8.926;2023-05-18T05:23:36;97762.91;;;8.03;81.82
1401;BME280;46518;48.842;8.926;2023-05-18T05:26:04;97763.25;;;8.06;81.95
1401;BME280;46518;48.842;8.926;2023-05-18T05:28:33;97767.66;;;8.12;81.85
1401;BME280;46518;48.842;8.926;2023-05-18T05:31:01;97760.75;;;8.18;82.20
1401;BME280;46518;48.842;8.926;2023-05-18T05:33:29;97754.88;;;8.23;81.71
1401;BME280;46518;48.842;8.926;2023-05-18T05:35:58;97753.44;;;8.27;81.49
1401;BME280;46518;48.842;8.926;2023-05-18T05:38:28;97753.34;;;8.40;81.32
1401;BME280;46518;48.842;8.926;2023-05-18T05:40:56;97767.38;;;8.52;80.42
1401;BME280;46518;48.842;8.926;2023-05-18T05:43:25;97747.25;;;8.46;79.81
1401;BME280;46518;48.842;8.926;2023-05-18T05:45:54;97754.78;;;8.61;79.36
1401;BME280;46518;48.842;8.926;2023-05-18T05:48:23;97751.78;;;8.57;78.54
1401;BME280;46518;48.842;8.926;2023-05-18T05:50:52;97759.81;;;8.81;78.42
1401;BME280;46518;48.842;8.926;2023-05-18T05:53:20;97759.47;;;8.77;77.45
1401;BME280;46518;48.842;8.926;2023-05-18T05:55:50;97754.56;;;8.62;76.81
1401;BME280;46518;48.842;8.926;2023-05-18T05:58:19;97756.34;;;8.87;76.08
1401;BME280;46518;48.842;8.926;2023-05-18T06:00:54;97762.53;;;8.93;76.01
1401;BME280;46518;48.842;8.926;2023-05-18T06:03:22;97758.09;;;9.12;75.90
1401;BME280;46518;48.842;8.926;2023-05-18T06:05:51;97758.59;;;9.20;75.30
1401;BME280;46518;48.842;8.926;2023-05-18T06:08:21;97766.91;;;9.17;75.16
1401;BME280;46518;48.842;8.926;2023-05-18T06:10:53;97767.19;;;9.27;74.88
1401;BME280;46518;48.842;8.926;2023-05-18T06:13:22;97749.84;;;9.26;74.51
1401;BME280;46518;48.842;8.926;2023-05-18T06:15:53;97766.22;;;9.40;73.98
1401;BME280;46518;48.842;8.926;2023-05-18T06:18:23;97763.41;;;9.42;74.09
1401;BME280;46518;48.842;8.926;2023-05-18T06:20:55;97764.97;;;9.43;74.16
1401;BME280;46518;48.842;8.926;2023-05-18T06:23:23;97768.25;;;9.57;73.70
1401;BME280;46518;48.842;8.926;2023-05-18T06:26:02;97755.00;;;9.52;73.85
1401;BME280;46518;48.842;8.926;2023-05-18T06:28:42;97752.25;;;9.58;73.65
1401;BME280;46518;48.842;8.926;2023-05-18T06:31:19;97765.91;;;9.67;72.91
1401;BME280;46518;48.842;8.926;2023-05-18T06:33:51;97762.22;;;9.68;71.48
1401;BME280;46518;48.842;8.926;2023-05-18T06:36:19;97768.56;;;9.79;71.47
1401;BME280;46518;48.842;8.926;2023-05-18T06:38:48;97754.84;;;9.77;70.95
1401;BME280;46518;48.842;8.926;2023-05-18T06:41:17;97761.88;;;9.94;70.67
1401;BME280;46518;48.842;8.926;2023-05-18T06:43:46;97763.25;;;9.97;70.46
1401;BME280;46518;48.842;8.926;2023-05-18T06:46:20;97771.47;;;10.01;70.20
1401;BME280;46518;48.842;8.926;2023-05-18T06:48:58;97762.50;;;10.08;69.99
1401;BME280;46518;48.842;8.926;2023-05-18T06:51:30;97759.03;;;10.08;69.84
1401;BME280;46518;48.842;8.926;2023-05-18T06:54:09;97754.59;;;10.08;69.63
1401;BME280;46518;48.842;8.926;2023-05-18T06:58:15;97763.59;;;10.31;69.04
1401;BME280;46518;48.842;8.926;2023-05-18T07:00:44;97770.34;;;10.39;69.13
1401;BME280;46518;48.842;8.926;2023-05-18T07:03:14;97769.75;;;10.36;68.65
1401;BME280;46518;48.842;8.926;2023-05-18T07:05:42;97773.41;;;10.47;68.52
1401;BME280;46518;48.842;8.926;2023-05-18T07:08:10;97759.56;;;10.52;69.13
1401;BME280;46518;48.842;8.926;2023-05-18T07:10:39;97768.38;;;10.69;68.55
1401;BME280;46518;48.842;8.926;2023-05-18T07:13:07;97767.81;;;10.79;68.40
1401;BME280;46518;48.842;8.926;2023-05-18T07:15:37;97760.03;;;10.84;67.02
1401;BME280;46518;48.842;8.926;2023-05-18T07:18:06;97768.03;;;10.89;67.75
1401;BME280;46518;48.842;8.926;2023-05-18T07:20:34;97771.31;;;11.08;67.40
1401;BME280;46518;48.842;8.926;2023-05-18T07:23:02;97772.25;;;11.14;66.62
1401;BME280;46518;48.842;8.926;2023-05-18T07:25:30;97772.53;;;11.29;66.36
1401;BME280;46518;48.842;8.926;2023-05-18T07:27:59;97774.00;;;11.37;66.14
1401;BME280;46518;48.842;8.926;2023-05-18T07:30:27;97772.03;;;11.44;65.24
1401;BME280;46518;48.842;8.926;2023-05-18T07:32:57;97779.16;;;11.43;65.27
1401;BME280;46518;48.842;8.926;2023-05-18T07:35:25;97777.50;;;11.54;64.97
1401;BME280;46518;48.842;8.926;2023-05-18T07:37:54;97764.53;;;11.64;64.69
1401;BME280;46518;48.842;8.926;2023-05-18T07:40:22;97763.94;;;11.62;63.90
1401;BME280;46518;48.842;8.926;2023-05-18T07:42:50;97762.69;;;11.65;63.67
1401;BME280;46518;48.842;8.926;2023-05-18T07:45:18;97771.50;;;11.71;63.30
1401;BME280;46518;48.842;8.926;2023-05-18T07:47:47;97771.53;;;11.87;63.78
1401;BME280;46518;48.842;8.926;2023-05-18T07:50:17;97770.16;;;11.85;62.75
1401;BME280;46518;48.842;8.926;2023-05-18T07:52:45;97770.53;;;11.89;62.15
1401;BME280;46518;48.842;8.926;2023-05-18T07:55:14;97770.13;;;11.97;62.38
1401;BME280;46518;48.842;8.926;2023-05-18T07:57:42;97764.94;;;12.02;61.84
1401;BME280;46518;48.842;8.926;2023-05-18T08:00:11;97763.81;;;12.15;61.91
1401;BME280;46518;48.842;8.926;2023-05-18T08:02:40;97767.03;;;12.34;62.01
1401;BME280;46518;48.842;8.926;2023-05-18T08:05:09;97759.03;;;12.45;61.98
1401;BME280;46518;48.842;8.926;2023-05-18T08:07:38;97761.09;;;12.60;61.53
1401;BME280;46518;48.842;8.926;2023-05-18T08:10:09;97758.28;;;12.67;60.81
1401;BME280;46518;48.842;8.926;2023-05-18T08:12:37;97754.38;;;12.69;60.23
1401;BME280;46518;48.842;8.926;2023-05-18T08:15:07;97745.72;;;12.74;59.48
1401;BME280;46518;48.842;8.926;2023-05-18T08:17:35;97753.78;;;12.84;59.58
1401;BME280;46518;48.842;8.926;2023-05-18T08:20:05;97750.19;;;12.90;59.77
1401;BME280;46518;48.842;8.926;2023-05-18T08:22:34;97755.25;;;12.97;59.39
1401;BME280;46518;48.842;8.926;2023-05-18T08:25:04;97759.03;;;13.01;58.31
1401;BME280;46518;48.842;8.926;2023-05-18T08:27:32;97755.72;;;13.11;58.85
1401;BME280;46518;48.842;8.926;2023-05-18T08:30:00;97759.28;;;13.22;59.90
1401;BME280;46518;48.842;8.926;2023-05-18T08:52:06;97728.94;;;13.73;54.23
1401;BME280;46518;48.842;8.926;2023-05-18T08:57:38;97726.47;;;13.94;54.29
1401;BME280;46518;48.842;8.926;2023-05-18T09:00:08;97721.72;;;13.96;54.29
1401;BME280;46518;48.842;8.926;2023-05-18T09:02:38;97724.81;;;13.88;53.27
1401;BME280;46518;48.842;8.926;2023-05-18T09:05:08;97718.88;;;14.08;52.84
1401;BME280;46518;48.842;8.926;2023-05-18T09:07:39;97713.91;;;14.11;53.05
1401;BME280;46518;48.842;8.926;2023-05-18T09:13:13;97707.41;;;14.29;51.69
1401;BME280;46518;48.842;8.926;2023-05-18T09:15:41;97707.38;;;14.24;51.26
1401;BME280;46518;48.842;8.926;2023-05-18T09:18:10;97717.50;;;14.32;51.11
1401;BME280;46518;48.842;8.926;2023-05-18T09:20:38;97716.19;;;14.35;52.17
1401;BME280;46518;48.842;8.926;2023-05-18T09:23:07;97715.47;;;14.44;50.93
1401;BME280;46518;48.842;8.926;2023-05-18T09:25:42;97717.50;;;14.32;49.74
1401;BME280;46518;48.842;8.926;2023-05-18T09:28:24;97713.34;;;14.46;49.96
1401;BME280;46518;48.842;8.926;2023-05-18T09:30:53;97700.72;;;14.16;48.88
1401;BME280;46518;48.842;8.926;2023-05-18T09:33:21;97705.38;;;14.41;49.22
1401;BME280;46518;48.842;8.926;2023-05-18T09:35:53;97715.25;;;14.51;49.85
1401;BME280;46518;48.842;8.926;2023-05-18T09:38:23;97714.53;;;14.61;49.76
1401;BME280;46518;48.842;8.926;2023-05-18T09:40:54;97715.22;;;14.88;50.68
1401;BME280;46518;48.842;8.926;2023-05-18T09:43:22;97712.38;;;15.05;49.90
1401;BME280;46518;48.842;8.926;2023-05-18T09:45:50;97719.34;;;15.27;49.32
1401;BME280;46518;48.842;8.926;2023-05-18T09:48:18;97723.09;;;15.41;48.66
1401;BME280;46518;48.842;8.926;2023-05-18T09:50:51;97714.63;;;15.44;48.33
1401;BME280;46518;48.842;8.926;2023-05-18T09:53:19;97706.16;;;15.58;47.92
1401;BME280;46518;48.842;8.926;2023-05-18T09:55:49;97708.84;;;15.63;46.87
1401;BME280;46518;48.842;8.926;2023-05-18T09:58:17;97706.69;;;15.60;46.75
1401;BME280;46518;48.842;8.926;2023-05-18T10:00:47;97697.69;;;15.66;46.62
1401;BME280;46518;48.842;8.926;2023-05-18T10:03:19;97691.63;;;15.76;46.83
1401;BME280;46518;48.842;8.926;2023-05-18T10:05:48;97698.28;;;15.93;45.90
1401;BME280;46518;48.842;8.926;2023-05-18T10:08:17;97695.34;;;15.95;45.82
1401;BME280;46518;48.842;8.926;2023-05-18T10:10:47;97692.16;;;15.98;45.25
1401;BME280;46518;48.842;8.926;2023-05-18T10:13:17;97682.34;;;16.04;45.90
1401;BME280;46518;48.842;8.926;2023-05-18T10:15:48;97688.97;;;15.91;45.04
1401;BME280;46518;48.842;8.926;2023-05-18T10:18:20;97688.44;;;15.89;44.81
1401;BME280;46518;48.842;8.926;2023-05-18T10:20:51;97685.00;;;15.93;45.10
1401;BME280;46518;48.842;8.926;2023-05-18T10:23:21;97683.66;;;16.01;44.98
1401;BME280;46518;48.842;8.926;2023-05-18T10:25:51;97675.16;;;16.04;44.94
1401;BME280;46518;48.842;8.926;2023-05-18T10:28:22;97676.78;;;16.05;44.33
1401;BME280;46518;48.842;8.926;2023-05-18T10:30:56;97684.19;;;16.08;45.16
1401;BME280;46518;48.842;8.926;2023-05-18T10:33:26;97685.22;;;16.12;45.44
1401;BME280;46518;48.842;8.926;2023-05-18T10:35:56;97681.53;;;16.18;44.56
1401;BME280;46518;48.842;8.926;2023-05-18T10:38:25;97676.97;;;16.34;45.08
1401;BME280;46518;48.842;8.926;2023-05-18T10:40:55;97682.56;;;16.48;44.94
1401;BME280;46518;48.842;8.926;2023-05-18T10:43:25;97673.81;;;16.43;44.56
1401;BME280;46518;48.842;8.926;2023-05-18T10:45:55;97680.63;;;16.64;44.97
1401;BME280;46518;48.842;8.926;2023-05-18T10:48:24;97684.09;;;16.75;43.89
1401;BME280;46518;48.842;8.926;2023-05-18T10:50:54;97681.41;;;16.90;43.74
1401;BME280;46518;48.842;8.926;2023-05-18T10:53:24;97674.44;;;16.94;42.64
1401;BME280;46518;48.842;8.926;2023-05-18T10:55:53;97675.78;;;16.92;42.62
1401;BME280;46518;48.842;8.926;2023-05-18T10:58:25;97678.47;;;16.76;41.80
1401;BME280;46518;48.842;8.926;2023-05-18T11:00:57;97670.47;;;16.92;42.09
1401;BME280;46518;48.842;8.926;2023-05-18T11:03:25;97677.13;;;16.89;42.06
1401;BME280;46518;48.842;8.926;2023-05-18T11:06:05;97671.78;;;16.94;42.03
1401;BME280;46518;48.842;8.926;2023-05-18T11:08:41;97672.06;;;16.93;42.28
1401;BME280;46518;48.842;8.926;2023-05-18T11:11:10;97660.38;;;16.89;41.79
1401;BME280;46518;48.842;8.926;2023-05-18T11:13:42;97669.41;;;16.98;42.16
1401;BME280;46518;48.842;8.926;2023-05-18T11:16:11;97664.28;;;17.07;41.87
1401;BME280;46518;48.842;8.926;2023-05-18T11:18:42;97667.78;;;16.97;41.84
1401;BME280;46518;48.842;8.926;2023-05-18T11:21:18;97647.66;;;16.86;41.14
1401;BME280;46518;48.842;8.926;2023-05-18T11:26:57;97655.03;;;16.99;41.30
1401;BME280;46518;48.842;8.926;2023-05-18T11:29:33;97646.69;;;17.16;40.55
1401;BME280;46518;48.842;8.926;2023-05-18T11:32:02;97650.13;;;17.21;40.44
1401;BME280;46518;48.842;8.926;2023-05-18T11:34:42;97655.72;;;17.20;40.83
1401;BME280;46518;48.842;8.926;2023-05-18T11:37:12;97637.97;;;17.10;40.50
1401;BME280;46518;48.842;8.926;2023-05-18T11:39:52;97651.97;;;17.21;40.42
1401;BME280;46518;48.842;8.926;2023-05-18T11:42:31;97647.44;;;17.27;40.18
1401;BME280;46518;48.842;8.926;2023-05-18T11:45:09;97638.88;;;17.30;40.37
1401;BME280;46518;48.842;8.926;2023-05-18T11:47:38;97641.25;;;17.36;39.71
1401;BME280;46518;48.842;8.926;2023-05-18T11:50:08;97643.53;;;17.53;39.13
1401;BME280;46518;48.842;8.926;2023-05-18T11:52:44;97649.63;;;17.59;39.33
1401;BME280;46518;48.842;8.926;2023-05-18T11:55:14;97646.16;;;17.58;39.69
1401;BME280;46518;48.842;8.926;2023-05-18T11:57:45;97648.59;;;17.50;39.16
1401;BME280;46518;48.842;8.926;2023-05-18T12:00:16;97646.94;;;17.59;39.62
1401;BME280;46518;48.842;8.926;2023-05-18T12:02:47;97640.25;;;17.66;38.84
1401;BME280;46518;48.842;8.926;2023-05-18T12:05:16;97640.25;;;17.66;38.38
1401;BME280;46518;48.842;8.926;2023-05-18T12:07:51;97643.91;;;17.81;38.97
1401;BME280;46518;48.842;8.926;2023-05-18T12:10:20;97630.31;;;17.82;38.32
1401;BME280;46518;48.842;8.926;2023-05-18T12:12:50;97627.25;;;17.94;38.30
1401;BME280;46518;48.842;8.926;2023-05-18T12:15:22;97624.38;;;17.91;38.98
1401;BME280;46518;48.842;8.926;2023-05-18T12:17:51;97626.69;;;18.02;39.01
1401;BME280;46518;48.842;8.926;2023-05-18T12:20:21;97610.41;;;18.04;39.88
1401;BME280;46518;48.842;8.926;2023-05-18T12:22:52;97618.88;;;18.35;39.64
1401;BME280;46518;48.842;8.926;2023-05-18T12:25:22;97621.50;;;18.40;38.22
1401;BME280;46518;48.842;8.926;2023-05-18T12:27:52;97626.75;;;18.21;37.26
1401;BME280;46518;48.842;8.926;2023-05-18T12:30:23;97622.25;;;18.17;37.68
1401;BME280;46518;48.842;8.926;2023-05-18T12:32:53;97624.72;;;18.37;38.05
1401;BME280;46518;48.842;8.926;2023-05-18T12:35:22;97620.69;;;18.64;37.52
1401;BME280;46518;48.842;8.926;2023-05-18T12:37:51;97611.41;;;18.85;38.47
1401;BME280;46518;48.842;8.926;2023-05-18T12:40:21;97605.94;;;18.95;37.38
1401;BME280;46518;48.842;8.926;2023-05-18T12:42:50;97611.19;;;19.01;38.03
1401;BME280;46518;48.842;8.926;2023-05-18T12:45:24;97611.22;;;19.20;36.65
1401;BME280;46518;48.842;8.926;2023-05-18T12:47:53;97601.69;;;19.32;36.49
1401;BME280;46518;48.842;8.926;2023-05-18T12:50:23;97608.09;;;19.31;36.33
1401;BME280;46518;48.842;8.926;2023-05-18T12:52:53;97602.66;;;19.36;36.31
1401;BME280;46518;48.842;8.926;2023-05-18T12:55:22;97600.75;;;19.23;36.44
1401;BME280;46518;48.842;8.926;2023-05-18T12:57:58;97611.75;;;19.16;36.25
1401;BME280;46518;48.842;8.926;2023-05-18T13:00:31;97602.81;;;19.26;35.65
1401;BME280;46518;48.842;8.926;2023-05-18T13:03:06;97601.22;;;19.44;35.58
1401;BME280;46518;48.842;8.926;2023-05-18T13:05:39;97603.38;;;19.61;36.25
1401;BME280;46518;48.842;8.926;2023-05-18T13:08:08;97599.97;;;19.74;35.39
1401;BME280;46518;48.842;8.926;2023-05-18T13:10:42;97597.75;;;19.63;36.18
1401;BME280;46518;48.842;8.926;2023-05-18T13:13:14;97601.00;;;19.59;35.83
1401;BME280;46518;48.842;8.926;2023-05-18T13:15:44;97592.69;;;19.61;35.18
1401;BME280;46518;48.842;8.926;2023-05-18T13:18:12;97596.22;;;19.56;35.62
1401;BME280;46518;48.842;8.926;2023-05-18T13:20:42;97599.47;;;19.72;36.05
1401;BME280;46518;48.842;8.926;2023-05-18T13:23:13;97590.28;;;19.78;35.74
1401;BME280;46518;48.842;8.926;2023-05-18T13:25:43;97603.94;;;19.58;35.47
1401;BME280;46518;48.842;8.926;2023-05-18T13:28:13;97600.81;;;19.37;35.50
1401;BME280;46518;48.842;8.926;2023-05-18T13:30:44;97603.59;;;19.27;36.32
1401;BME280;46518;48.842;8.926;2023-05-18T13:33:14;97602.31;;;19.43;36.10
1401;BME280;46518;48.842;8.926;2023-05-18T13:35:44;97599.50;;;19.34;35.43
1401;BME280;46518;48.842;8.926;2023-05-18T13:38:13;97602.75;;;19.50;36.06
1401;BME280;46518;48.842;8.926;2023-05-18T13:40:41;97594.03;;;19.45;35.53
1401;BME280;46518;48.842;8.926;2023-05-18T13:43:11;97582.19;;;19.32;35.12
1401;BME280;46518;48.842;8.926;2023-05-18T13:45:40;97587.69;;;19.22;36.13
1401;BME280;46518;48.842;8.926;2023-05-18T13:48:11;97580.59;;;19.12;37.21
1401;BME280;46518;48.842;8.926;2023-05-18T13:50:40;97585.31;;;19.20;36.09
1401;BME280;46518;48.842;8.926;2023-05-18T13:53:08;97586.66;;;19.36;36.21
1401;BME280;46518;48.842;8.926;2023-05-18T13:55:36;97582.09;;;19.56;37.85
1401;BME280;46518;48.842;8.926;2023-05-18T13:58:04;97570.09;;;19.72;35.61
1401;BME280;46518;48.842;8.926;2023-05-18T14:00:32;97574.78;;;19.61;36.37
1401;BME280;46518;48.842;8.926;2023-05-18T14:03:02;97569.94;;;19.64;35.31
1401;BME280;46518;48.842;8.926;2023-05-18T14:05:32;97558.25;;;19.78;36.76